sensor_id;sensor_type;location;lat;lon;timestamp;P1;durP1;ratioP1;P2;durP2;ratioP2
34876;SDS011;21086;44.780;17.194;2023-07-02T00:00:04;3.83;;;3.00;;
34876;SDS011;21086;44.780;17.194;2023-07-02T00:02:33;4.68;;;3.42;;
34876;SDS011;21086;44.780;17.194;2023-07-02T00:05:00;5.38;;;3.45;;
34876;SDS011;21086;44.780;17.194;2023-07-02T00:07:28;4.38;;;2.90;;
34876;SDS011;21086;44.780;17.194;2023-07-02T00:09:55;5.88;;;2.63;;
34876;SDS011;21086;44.780;17.194;2023-07-02T00:12:22;5.15;;;3.22;;
34876;SDS011;21086;44.780;17.194;2023-07-02T00:14:49;3.10;;;2.35;;
34876;SDS011;21086;44.780;17.194;2023-07-02T00:17:19;5.20;;;2.75;;
34876;SDS011;21086;44.780;17.194;2023-07-02T00:19:47;10.23;;;3.50;;
34876;SDS011;21086;44.780;17.194;2023-07-02T00:22:18;4.10;;;2.92;;
34876;SDS011;21086;44.780;17.194;2023-07-02T00:24:45;6.65;;;3.00;;
34876;SDS011;21086;44.780;17.194;2023-07-02T00:27:12;4.95;;;3.47;;
34876;SDS011;21086;44.780;17.194;2023-07-02T00:29:39;3.92;;;2.60;;
34876;SDS011;21086;44.780;17.194;2023-07-02T00:32:06;3.25;;;2.53;;
34876;SDS011;21086;44.780;17.194;2023-07-02T00:34:33;2.75;;;2.22;;
34876;SDS011;21086;44.780;17.194;2023-07-02T00:37:00;3.22;;;2.35;;
34876;SDS011;21086;44.780;17.194;2023-07-02T00:39:27;4.47;;;2.20;;
34876;SDS011;21086;44.780;17.194;2023-07-02T00:41:59;3.17;;;2.38;;
34876;SDS011;21086;44.780;17.194;2023-07-02T00:44:27;3.53;;;2.33;;
34876;SDS011;21086;44.780;17.194;2023-07-02T00:46:54;3.10;;;2.42;;
34876;SDS011;21086;44.780;17.194;2023-07-02T00:49:22;3.08;;;2.25;;
34876;SDS011;21086;44.780;17.194;2023-07-02T00:51:49;3.03;;;2.20;;
34876;SDS011;21086;44.780;17.194;2023-07-02T00:54:17;2.97;;;2.38;;
34876;SDS011;21086;44.780;17.194;2023-07-02T00:56:44;3.30;;;2.28;;
34876;SDS011;21086;44.780;17.194;2023-07-02T00:59:12;4.82;;;2.20;;
34876;SDS011;21086;44.780;17.194;2023-07-02T01:01:39;3.05;;;2.03;;
34876;SDS011;21086;44.780;17.194;2023-07-02T01:04:06;2.90;;;2.20;;
34876;SDS011;21086;44.780;17.194;2023-07-02T01:06:39;2.60;;;2.10;;
34876;SDS011;21086;44.780;17.194;2023-07-02T01:09:08;3.03;;;2.10;;
34876;SDS011;21086;44.780;17.194;2023-07-02T01:14:40;4.32;;;2.00;;
34876;SDS011;21086;44.780;17.194;2023-07-02T01:17:10;2.67;;;2.20;;
34876;SDS011;21086;44.780;17.194;2023-07-02T01:19:47;2.47;;;1.95;;
34876;SDS011;21086;44.780;17.194;2023-07-02T01:22:23;2.35;;;1.77;;
34876;SDS011;21086;44.780;17.194;2023-07-02T01:24:52;3.15;;;2.28;;
34876;SDS011;21086;44.780;17.194;2023-07-02T01:27:20;4.00;;;1.90;;
34876;SDS011;21086;44.780;17.194;2023-07-02T01:29:50;3.28;;;2.40;;
34876;SDS011;21086;44.780;17.194;2023-07-02T01:32:18;5.22;;;2.53;;
34876;SDS011;21086;44.780;17.194;2023-07-02T01:34:46;2.75;;;2.38;;
34876;SDS011;21086;44.780;17.194;2023-07-02T01:37:20;2.85;;;2.08;;
34876;SDS011;21086;44.780;17.194;2023-07-02T01:39:47;3.05;;;1.80;;
34876;SDS011;21086;44.780;17.194;2023-07-02T01:42:14;3.28;;;2.22;;
34876;SDS011;21086;44.780;17.194;2023-07-02T01:44:45;2.47;;;1.95;;
34876;SDS011;21086;44.780;17.194;2023-07-02T01:47:13;2.97;;;2.05;;
34876;SDS011;21086;44.780;17.194;2023-07-02T01:49:42;2.63;;;1.95;;
34876;SDS011;21086;44.780;17.194;2023-07-02T01:52:09;4.78;;;2.00;;
34876;SDS011;21086;44.780;17.194;2023-07-02T01:54:36;3.33;;;2.42;;
34876;SDS011;21086;44.780;17.194;2023-07-02T01:57:03;2.33;;;2.00;;
34876;SDS011;21086;44.780;17.194;2023-07-02T01:59:31;4.30;;;2.10;;
34876;SDS011;21086;44.780;17.194;2023-07-02T02:01:58;4.20;;;1.80;;
34876;SDS011;21086;44.780;17.194;2023-07-02T02:04:25;3.47;;;2.50;;
34876;SDS011;21086;44.780;17.194;2023-07-02T02:06:52;2.90;;;2.10;;
34876;SDS011;21086;44.780;17.194;2023-07-02T02:09:19;4.18;;;2.00;;
34876;SDS011;21086;44.780;17.194;2023-07-02T02:11:48;3.25;;;2.15;;
34876;SDS011;21086;44.780;17.194;2023-07-02T02:14:16;3.70;;;2.53;;
34876;SDS011;21086;44.780;17.194;2023-07-02T02:16:43;3.35;;;1.83;;
34876;SDS011;21086;44.780;17.194;2023-07-02T02:19:14;3.00;;;2.30;;
34876;SDS011;21086;44.780;17.194;2023-07-02T02:21:42;3.22;;;2.03;;
34876;SDS011;21086;44.780;17.194;2023-07-02T02:24:10;3.53;;;2.15;;
34876;SDS011;21086;44.780;17.194;2023-07-02T02:26:37;2.55;;;1.95;;
34876;SDS011;21086;44.780;17.194;2023-07-02T02:29:04;2.65;;;2.03;;
34876;SDS011;21086;44.780;17.194;2023-07-02T02:31:31;2.75;;;1.92;;
34876;SDS011;21086;44.780;17.194;2023-07-02T02:33:58;4.70;;;2.03;;
34876;SDS011;21086;44.780;17.194;2023-07-02T02:36:26;4.05;;;2.10;;
34876;SDS011;21086;44.780;17.194;2023-07-02T02:38:53;6.78;;;2.35;;
34876;SDS011;21086;44.780;17.194;2023-07-02T02:41:20;3.35;;;2.20;;
34876;SDS011;21086;44.780;17.194;2023-07-02T02:43:46;2.03;;;1.80;;
34876;SDS011;21086;44.780;17.194;2023-07-02T02:46:19;3.67;;;2.35;;
34876;SDS011;21086;44.780;17.194;2023-07-02T02:48:49;4.13;;;2.70;;
34876;SDS011;21086;44.780;17.194;2023-07-02T02:51:16;3.30;;;2.40;;
34876;SDS011;21086;44.780;17.194;2023-07-02T02:53:43;2.88;;;2.30;;
34876;SDS011;21086;44.780;17.194;2023-07-02T02:56:10;3.00;;;2.00;;
34876;SDS011;21086;44.780;17.194;2023-07-02T02:58:37;4.10;;;2.60;;
34876;SDS011;21086;44.780;17.194;2023-07-02T03:01:04;3.97;;;2.13;;
34876;SDS011;21086;44.780;17.194;2023-07-02T03:03:38;3.33;;;2.33;;
34876;SDS011;21086;44.780;17.194;2023-07-02T03:06:07;4.43;;;2.22;;
34876;SDS011;21086;44.780;17.194;2023-07-02T03:08:34;2.97;;;2.22;;
34876;SDS011;21086;44.780;17.194;2023-07-02T03:11:01;3.15;;;2.10;;
34876;SDS011;21086;44.780;17.194;2023-07-02T03:13:28;4.15;;;2.58;;
34876;SDS011;21086;44.780;17.194;2023-07-02T03:15:55;3.30;;;1.92;;
34876;SDS011;21086;44.780;17.194;2023-07-02T03:18:22;3.58;;;2.13;;
34876;SDS011;21086;44.780;17.194;2023-07-02T03:20:49;2.28;;;1.90;;
34876;SDS011;21086;44.780;17.194;2023-07-02T03:23:16;4.70;;;2.53;;
34876;SDS011;21086;44.780;17.194;2023-07-02T03:25:43;4.78;;;2.17;;
34876;SDS011;21086;44.780;17.194;2023-07-02T03:28:10;4.45;;;2.30;;
34876;SDS011;21086;44.780;17.194;2023-07-02T03:30:38;4.55;;;2.05;;
34876;SDS011;21086;44.780;17.194;2023-07-02T03:33:05;4.32;;;2.65;;
34876;SDS011;21086;44.780;17.194;2023-07-02T03:35:32;4.07;;;2.10;;
34876;SDS011;21086;44.780;17.194;2023-07-02T03:37:59;4.35;;;2.20;;
34876;SDS011;21086;44.780;17.194;2023-07-02T03:40:26;3.38;;;2.40;;
34876;SDS011;21086;44.780;17.194;2023-07-02T03:42:53;2.92;;;1.95;;
34876;SDS011;21086;44.780;17.194;2023-07-02T03:45:20;6.07;;;2.20;;
34876;SDS011;21086;44.780;17.194;2023-07-02T03:47:47;3.95;;;2.08;;
34876;SDS011;21086;44.780;17.194;2023-07-02T03:50:14;3.70;;;2.50;;
34876;SDS011;21086;44.780;17.194;2023-07-02T03:52:41;3.40;;;2.67;;
34876;SDS011;21086;44.780;17.194;2023-07-02T03:55:09;3.92;;;2.65;;
34876;SDS011;21086;44.780;17.194;2023-07-02T03:57:36;6.50;;;2.60;;
34876;SDS011;21086;44.780;17.194;2023-07-02T04:00:04;5.03;;;2.10;;
34876;SDS011;21086;44.780;17.194;2023-07-02T04:02:32;3.10;;;2.47;;
34876;SDS011;21086;44.780;17.194;2023-07-02T04:04:59;7.40;;;2.60;;
34876;SDS011;21086;44.780;17.194;2023-07-02T04:07:26;3.88;;;2.90;;
34876;SDS011;21086;44.780;17.194;2023-07-02T04:09:53;3.00;;;2.55;;
34876;SDS011;21086;44.780;17.194;2023-07-02T04:12:20;5.80;;;2.60;;
34876;SDS011;21086;44.780;17.194;2023-07-02T04:14:47;3.60;;;2.50;;
34876;SDS011;21086;44.780;17.194;2023-07-02T04:17:14;5.68;;;3.35;;
34876;SDS011;21086;44.780;17.194;2023-07-02T04:19:41;4.40;;;2.88;;
34876;SDS011;21086;44.780;17.194;2023-07-02T04:22:08;5.70;;;3.90;;
34876;SDS011;21086;44.780;17.194;2023-07-02T04:24:35;5.25;;;3.08;;
34876;SDS011;21086;44.780;17.194;2023-07-02T04:27:02;5.93;;;3.20;;
34876;SDS011;21086;44.780;17.194;2023-07-02T04:29:50;6.07;;;2.42;;
34876;SDS011;21086;44.780;17.194;2023-07-02T04:32:17;4.97;;;2.15;;
34876;SDS011;21086;44.780;17.194;2023-07-02T04:34:44;3.00;;;2.50;;
34876;SDS011;21086;44.780;17.194;2023-07-02T04:37:11;4.95;;;2.80;;
34876;SDS011;21086;44.780;17.194;2023-07-02T04:39:38;5.70;;;2.67;;
34876;SDS011;21086;44.780;17.194;2023-07-02T04:42:06;4.50;;;2.83;;
34876;SDS011;21086;44.780;17.194;2023-07-02T04:44:33;3.60;;;2.50;;
34876;SDS011;21086;44.780;17.194;2023-07-02T04:47:00;5.28;;;3.20;;
34876;SDS011;21086;44.780;17.194;2023-07-02T04:49:28;4.38;;;2.47;;
34876;SDS011;21086;44.780;17.194;2023-07-02T04:51:55;2.97;;;2.20;;
34876;SDS011;21086;44.780;17.194;2023-07-02T04:54:22;2.40;;;2.05;;
34876;SDS011;21086;44.780;17.194;2023-07-02T04:56:49;3.30;;;2.50;;
34876;SDS011;21086;44.780;17.194;2023-07-02T04:59:16;3.63;;;2.75;;
34876;SDS011;21086;44.780;17.194;2023-07-02T05:01:43;3.42;;;2.50;;
34876;SDS011;21086;44.780;17.194;2023-07-02T05:04:11;2.65;;;2.15;;
34876;SDS011;21086;44.780;17.194;2023-07-02T05:06:38;3.33;;;2.40;;
34876;SDS011;21086;44.780;17.194;2023-07-02T05:09:05;4.53;;;2.47;;
34876;SDS011;21086;44.780;17.194;2023-07-02T05:11:32;3.13;;;2.50;;
34876;SDS011;21086;44.780;17.194;2023-07-02T05:13:59;3.63;;;2.60;;
34876;SDS011;21086;44.780;17.194;2023-07-02T05:16:26;4.38;;;2.50;;
34876;SDS011;21086;44.780;17.194;2023-07-02T05:18:54;2.92;;;2.35;;
34876;SDS011;21086;44.780;17.194;2023-07-02T05:21:21;3.38;;;2.50;;
34876;SDS011;21086;44.780;17.194;2023-07-02T05:23:49;3.45;;;2.45;;
34876;SDS011;21086;44.780;17.194;2023-07-02T05:26:16;3.40;;;2.22;;
34876;SDS011;21086;44.780;17.194;2023-07-02T05:28:43;4.57;;;2.40;;
34876;SDS011;21086;44.780;17.194;2023-07-02T05:31:11;3.53;;;2.50;;
34876;SDS011;21086;44.780;17.194;2023-07-02T05:33:38;3.72;;;2.50;;
34876;SDS011;21086;44.780;17.194;2023-07-02T05:36:06;3.28;;;2.42;;
34876;SDS011;21086;44.780;17.194;2023-07-02T05:38:33;3.85;;;2.08;;
34876;SDS011;21086;44.780;17.194;2023-07-02T05:40:59;4.28;;;2.10;;
34876;SDS011;21086;44.780;17.194;2023-07-02T05:43:27;3.20;;;2.30;;
34876;SDS011;21086;44.780;17.194;2023-07-02T05:45:57;3.78;;;2.42;;
34876;SDS011;21086;44.780;17.194;2023-07-02T05:48:26;3.70;;;2.47;;
34876;SDS011;21086;44.780;17.194;2023-07-02T05:50:54;3.08;;;2.13;;
34876;SDS011;21086;44.780;17.194;2023-07-02T05:53:21;2.65;;;2.20;;
34876;SDS011;21086;44.780;17.194;2023-07-02T05:55:49;4.68;;;2.42;;
34876;SDS011;21086;44.780;17.194;2023-07-02T05:58:16;3.15;;;2.42;;
34876;SDS011;21086;44.780;17.194;2023-07-02T06:00:43;3.75;;;2.55;;
34876;SDS011;21086;44.780;17.194;2023-07-02T06:03:16;4.35;;;2.80;;
34876;SDS011;21086;44.780;17.194;2023-07-02T06:05:47;3.67;;;2.65;;
34876;SDS011;21086;44.780;17.194;2023-07-02T06:08:16;5.97;;;2.33;;
34876;SDS011;21086;44.780;17.194;2023-07-02T06:10:45;5.00;;;2.70;;
34876;SDS011;21086;44.780;17.194;2023-07-02T06:13:14;3.42;;;2.58;;
34876;SDS011;21086;44.780;17.194;2023-07-02T06:15:41;3.67;;;2.72;;
34876;SDS011;21086;44.780;17.194;2023-07-02T06:18:08;3.83;;;2.35;;
34876;SDS011;21086;44.780;17.194;2023-07-02T06:20:35;3.53;;;2.20;;
34876;SDS011;21086;44.780;17.194;2023-07-02T06:23:03;4.70;;;2.67;;
34876;SDS011;21086;44.780;17.194;2023-07-02T06:25:30;2.75;;;2.35;;
34876;SDS011;21086;44.780;17.194;2023-07-02T06:27:59;3.35;;;2.55;;
34876;SDS011;21086;44.780;17.194;2023-07-02T06:30:26;3.85;;;2.33;;
34876;SDS011;21086;44.780;17.194;2023-07-02T06:32:54;3.13;;;2.55;;
34876;SDS011;21086;44.780;17.194;2023-07-02T06:35:21;3.10;;;2.53;;
34876;SDS011;21086;44.780;17.194;2023-07-02T06:37:49;2.65;;;2.13;;
34876;SDS011;21086;44.780;17.194;2023-07-02T06:40:16;2.92;;;2.13;;
34876;SDS011;21086;44.780;17.194;2023-07-02T06:42:43;4.28;;;2.80;;
34876;SDS011;21086;44.780;17.194;2023-07-02T06:45:10;4.53;;;3.00;;
34876;SDS011;21086;44.780;17.194;2023-07-02T06:47:38;3.55;;;2.50;;
34876;SDS011;21086;44.780;17.194;2023-07-02T06:50:05;3.20;;;2.35;;
34876;SDS011;21086;44.780;17.194;2023-07-02T06:52:32;5.95;;;2.60;;
34876;SDS011;21086;44.780;17.194;2023-07-02T06:54:59;4.95;;;2.67;;
34876;SDS011;21086;44.780;17.194;2023-07-02T06:57:27;6.03;;;2.45;;
34876;SDS011;21086;44.780;17.194;2023-07-02T06:59:57;3.03;;;2.30;;
34876;SDS011;21086;44.780;17.194;2023-07-02T07:02:26;7.00;;;2.72;;
34876;SDS011;21086;44.780;17.194;2023-07-02T07:04:54;3.65;;;2.10;;
34876;SDS011;21086;44.780;17.194;2023-07-02T07:07:21;4.18;;;3.30;;
34876;SDS011;21086;44.780;17.194;2023-07-02T07:09:48;3.10;;;2.40;;
34876;SDS011;21086;44.780;17.194;2023-07-02T07:12:15;3.88;;;3.38;;
34876;SDS011;21086;44.780;17.194;2023-07-02T07:14:42;5.43;;;3.33;;
34876;SDS011;21086;44.780;17.194;2023-07-02T07:17:10;3.60;;;3.10;;
34876;SDS011;21086;44.780;17.194;2023-07-02T07:19:37;3.63;;;2.88;;
34876;SDS011;21086;44.780;17.194;2023-07-02T07:22:05;6.20;;;3.33;;
34876;SDS011;21086;44.780;17.194;2023-07-02T07:24:32;4.32;;;3.40;;
34876;SDS011;21086;44.780;17.194;2023-07-02T07:26:59;3.60;;;3.13;;
34876;SDS011;21086;44.780;17.194;2023-07-02T07:29:26;5.72;;;3.92;;
34876;SDS011;21086;44.780;17.194;2023-07-02T07:31:53;6.60;;;3.22;;
34876;SDS011;21086;44.780;17.194;2023-07-02T07:34:20;3.92;;;3.45;;
34876;SDS011;21086;44.780;17.194;2023-07-02T07:36:47;4.05;;;3.25;;
34876;SDS011;21086;44.780;17.194;2023-07-02T07:39:14;5.00;;;3.67;;
34876;SDS011;21086;44.780;17.194;2023-07-02T07:41:41;4.90;;;3.33;;
34876;SDS011;21086;44.780;17.194;2023-07-02T07:44:12;4.18;;;3.22;;
34876;SDS011;21086;44.780;17.194;2023-07-02T07:46:39;4.38;;;3.70;;
34876;SDS011;21086;44.780;17.194;2023-07-02T07:49:06;4.65;;;4.00;;
34876;SDS011;21086;44.780;17.194;2023-07-02T07:51:33;4.03;;;3.63;;
34876;SDS011;21086;44.780;17.194;2023-07-02T07:54:02;4.78;;;3.60;;
34876;SDS011;21086;44.780;17.194;2023-07-02T07:56:29;5.40;;;3.83;;
34876;SDS011;21086;44.780;17.194;2023-07-02T07:58:56;5.22;;;3.90;;
34876;SDS011;21086;44.780;17.194;2023-07-02T08:01:25;8.05;;;4.20;;
34876;SDS011;21086;44.780;17.194;2023-07-02T08:03:52;5.90;;;4.10;;
34876;SDS011;21086;44.780;17.194;2023-07-02T08:06:19;4.68;;;4.15;;
34876;SDS011;21086;44.780;17.194;2023-07-02T08:08:46;4.30;;;3.90;;
34876;SDS011;21086;44.780;17.194;2023-07-02T08:11:13;4.40;;;3.88;;
34876;SDS011;21086;44.780;17.194;2023-07-02T08:13:40;4.68;;;4.13;;
34876;SDS011;21086;44.780;17.194;2023-07-02T08:16:08;4.65;;;3.90;;
34876;SDS011;21086;44.780;17.194;2023-07-02T08:18:36;5.05;;;3.88;;
34876;SDS011;21086;44.780;17.194;2023-07-02T08:21:03;4.22;;;3.40;;
34876;SDS011;21086;44.780;17.194;2023-07-02T08:23:33;4.47;;;3.83;;
34876;SDS011;21086;44.780;17.194;2023-07-02T08:26:00;4.32;;;3.40;;
34876;SDS011;21086;44.780;17.194;2023-07-02T08:28:28;5.22;;;3.72;;
34876;SDS011;21086;44.780;17.194;2023-07-02T08:30:55;5.05;;;3.83;;
34876;SDS011;21086;44.780;17.194;2023-07-02T08:33:22;4.38;;;3.55;;
34876;SDS011;21086;44.780;17.194;2023-07-02T08:35:50;5.35;;;3.72;;
34876;SDS011;21086;44.780;17.194;2023-07-02T08:38:17;4.88;;;3.28;;
34876;SDS011;21086;44.780;17.194;2023-07-02T08:40:44;4.30;;;3.80;;
34876;SDS011;21086;44.780;17.194;2023-07-02T08:43:12;5.72;;;4.07;;
34876;SDS011;21086;44.780;17.194;2023-07-02T08:45:40;5.68;;;4.05;;
34876;SDS011;21086;44.780;17.194;2023-07-02T08:48:10;4.90;;;3.90;;
34876;SDS011;21086;44.780;17.194;2023-07-02T08:50:37;4.47;;;3.60;;
34876;SDS011;21086;44.780;17.194;2023-07-02T08:53:05;5.15;;;3.80;;
34876;SDS011;21086;44.780;17.194;2023-07-02T08:55:32;4.90;;;3.70;;
34876;SDS011;21086;44.780;17.194;2023-07-02T08:57:59;6.22;;;4.10;;
34876;SDS011;21086;44.780;17.194;2023-07-02T09:00:27;4.30;;;3.90;;
34876;SDS011;21086;44.780;17.194;2023-07-02T09:02:54;4.72;;;3.53;;
34876;SDS011;21086;44.780;17.194;2023-07-02T09:05:21;4.93;;;3.65;;
34876;SDS011;21086;44.780;17.194;2023-07-02T09:07:49;4.55;;;3.50;;
34876;SDS011;21086;44.780;17.194;2023-07-02T09:10:26;4.63;;;3.88;;
34876;SDS011;21086;44.780;17.194;2023-07-02T09:13:06;5.10;;;3.88;;
34876;SDS011;21086;44.780;17.194;2023-07-02T09:15:37;5.82;;;3.97;;
34876;SDS011;21086;44.780;17.194;2023-07-02T09:18:15;5.43;;;3.70;;
34876;SDS011;21086;44.780;17.194;2023-07-02T09:20:43;5.07;;;3.53;;
34876;SDS011;21086;44.780;17.194;2023-07-02T09:23:10;5.03;;;3.80;;
34876;SDS011;21086;44.780;17.194;2023-07-02T09:25:38;4.22;;;3.30;;
34876;SDS011;21086;44.780;17.194;2023-07-02T09:30:53;5.55;;;3.92;;
34876;SDS011;21086;44.780;17.194;2023-07-02T09:33:24;4.07;;;3.30;;
34876;SDS011;21086;44.780;17.194;2023-07-02T09:35:54;3.40;;;2.95;;
34876;SDS011;21086;44.780;17.194;2023-07-02T09:38:21;6.25;;;3.80;;
34876;SDS011;21086;44.780;17.194;2023-07-02T09:40:50;5.03;;;3.78;;
34876;SDS011;21086;44.780;17.194;2023-07-02T09:43:19;4.03;;;3.40;;
34876;SDS011;21086;44.780;17.194;2023-07-02T09:45:47;4.40;;;3.60;;
34876;SDS011;21086;44.780;17.194;2023-07-02T09:48:17;5.00;;;3.58;;
34876;SDS011;21086;44.780;17.194;2023-07-02T09:50:44;4.20;;;3.80;;
34876;SDS011;21086;44.780;17.194;2023-07-02T09:53:13;4.25;;;3.83;;
34876;SDS011;21086;44.780;17.194;2023-07-02T09:55:44;4.72;;;4.00;;
34876;SDS011;21086;44.780;17.194;2023-07-02T09:58:11;4.32;;;3.33;;
34876;SDS011;21086;44.780;17.194;2023-07-02T10:00:38;3.70;;;3.03;;
34876;SDS011;21086;44.780;17.194;2023-07-02T10:03:06;5.60;;;3.53;;
34876;SDS011;21086;44.780;17.194;2023-07-02T10:05:33;4.18;;;3.00;;
34876;SDS011;21086;44.780;17.194;2023-07-02T10:08:14;3.90;;;3.42;;
34876;SDS011;21086;44.780;17.194;2023-07-02T10:10:44;4.75;;;3.50;;
34876;SDS011;21086;44.780;17.194;2023-07-02T10:13:12;3.83;;;2.95;;
34876;SDS011;21086;44.780;17.194;2023-07-02T10:15:39;4.32;;;3.03;;
34876;SDS011;21086;44.780;17.194;2023-07-02T10:18:06;5.03;;;3.53;;
34876;SDS011;21086;44.780;17.194;2023-07-02T10:20:37;4.13;;;3.50;;
34876;SDS011;21086;44.780;17.194;2023-07-02T10:23:06;4.78;;;3.53;;
34876;SDS011;21086;44.780;17.194;2023-07-02T10:25:35;4.03;;;3.35;;
34876;SDS011;21086;44.780;17.194;2023-07-02T10:28:13;4.75;;;3.85;;
34876;SDS011;21086;44.780;17.194;2023-07-02T10:30:42;4.40;;;3.85;;
34876;SDS011;21086;44.780;17.194;2023-07-02T10:33:10;4.03;;;3.55;;
34876;SDS011;21086;44.780;17.194;2023-07-02T10:35:45;4.70;;;3.22;;
34876;SDS011;21086;44.780;17.194;2023-07-02T10:38:20;4.60;;;3.45;;
34876;SDS011;21086;44.780;17.194;2023-07-02T10:40:55;4.47;;;3.60;;
34876;SDS011;21086;44.780;17.194;2023-07-02T10:43:24;4.53;;;3.65;;
34876;SDS011;21086;44.780;17.194;2023-07-02T10:45:56;3.80;;;3.17;;
34876;SDS011;21086;44.780;17.194;2023-07-02T10:48:26;4.03;;;3.33;;
34876;SDS011;21086;44.780;17.194;2023-07-02T10:50:53;5.13;;;3.53;;
34876;SDS011;21086;44.780;17.194;2023-07-02T10:53:20;4.53;;;3.75;;
34876;SDS011;21086;44.780;17.194;2023-07-02T10:55:55;4.43;;;3.28;;
34876;SDS011;21086;44.780;17.194;2023-07-02T10:58:41;4.05;;;3.25;;
34876;SDS011;21086;44.780;17.194;2023-07-02T11:01:12;3.88;;;3.42;;
34876;SDS011;21086;44.780;17.194;2023-07-02T11:03:39;4.93;;;3.40;;
34876;SDS011;21086;44.780;17.194;2023-07-02T11:06:07;4.70;;;3.35;;
34876;SDS011;21086;44.780;17.194;2023-07-02T11:08:34;3.90;;;3.45;;
34876;SDS011;21086;44.780;17.194;2023-07-02T11:11:08;7.05;;;3.22;;
34876;SDS011;21086;44.780;17.194;2023-07-02T11:13:43;4.05;;;3.40;;
34876;SDS011;21086;44.780;17.194;2023-07-02T11:16:28;4.68;;;3.67;;
34876;SDS011;21086;44.780;17.194;2023-07-02T11:19:06;4.90;;;3.33;;
34876;SDS011;21086;44.780;17.194;2023-07-02T11:21:36;4.53;;;3.40;;
34876;SDS011;21086;44.780;17.194;2023-07-02T11:24:08;4.00;;;3.28;;
34876;SDS011;21086;44.780;17.194;2023-07-02T11:26:38;3.53;;;2.95;;
34876;SDS011;21086;44.780;17.194;2023-07-02T11:29:12;3.85;;;2.97;;
34876;SDS011;21086;44.780;17.194;2023-07-02T11:31:44;3.67;;;2.95;;
34876;SDS011;21086;44.780;17.194;2023-07-02T11:34:17;5.22;;;3.35;;
34876;SDS011;21086;44.780;17.194;2023-07-02T11:36:48;3.90;;;3.45;;
34876;SDS011;21086;44.780;17.194;2023-07-02T11:39:16;3.83;;;3.13;;
34876;SDS011;21086;44.780;17.194;2023-07-02T11:41:44;4.63;;;2.95;;
34876;SDS011;21086;44.780;17.194;2023-07-02T11:44:14;3.33;;;3.03;;
34876;SDS011;21086;44.780;17.194;2023-07-02T11:46:42;4.78;;;3.40;;
34876;SDS011;21086;44.780;17.194;2023-07-02T11:49:09;4.40;;;3.33;;
34876;SDS011;21086;44.780;17.194;2023-07-02T11:51:36;3.30;;;2.90;;
34876;SDS011;21086;44.780;17.194;2023-07-02T11:54:04;5.65;;;3.40;;
34876;SDS011;21086;44.780;17.194;2023-07-02T11:56:31;4.10;;;3.17;;
34876;SDS011;21086;44.780;17.194;2023-07-02T11:58:59;2.85;;;2.50;;
34876;SDS011;21086;44.780;17.194;2023-07-02T12:01:30;3.33;;;2.88;;
34876;SDS011;21086;44.780;17.194;2023-07-02T12:03:57;5.47;;;3.15;;
34876;SDS011;21086;44.780;17.194;2023-07-02T12:06:25;3.63;;;3.00;;
34876;SDS011;21086;44.780;17.194;2023-07-02T12:08:52;4.05;;;3.03;;
34876;SDS011;21086;44.780;17.194;2023-07-02T12:11:19;3.55;;;3.00;;
34876;SDS011;21086;44.780;17.194;2023-07-02T12:13:46;3.15;;;2.70;;
34876;SDS011;21086;44.780;17.194;2023-07-02T12:16:13;4.43;;;2.75;;
34876;SDS011;21086;44.780;17.194;2023-07-02T12:18:40;3.13;;;2.75;;
34876;SDS011;21086;44.780;17.194;2023-07-02T12:21:08;3.45;;;3.00;;
34876;SDS011;21086;44.780;17.194;2023-07-02T12:23:36;3.00;;;2.70;;
34876;SDS011;21086;44.780;17.194;2023-07-02T12:26:03;3.47;;;2.47;;
34876;SDS011;21086;44.780;17.194;2023-07-02T12:28:30;4.20;;;3.13;;
34876;SDS011;21086;44.780;17.194;2023-07-02T12:30:57;5.00;;;2.63;;
34876;SDS011;21086;44.780;17.194;2023-07-02T12:33:24;3.97;;;2.78;;
34876;SDS011;21086;44.780;17.194;2023-07-02T12:35:51;2.80;;;2.50;;
34876;SDS011;21086;44.780;17.194;2023-07-02T12:38:18;3.25;;;2.78;;
34876;SDS011;21086;44.780;17.194;2023-07-02T12:40:45;2.78;;;2.47;;
34876;SDS011;21086;44.780;17.194;2023-07-02T12:43:13;4.38;;;3.30;;
34876;SDS011;21086;44.780;17.194;2023-07-02T12:45:40;4.53;;;3.33;;
34876;SDS011;21086;44.780;17.194;2023-07-02T12:48:07;3.58;;;3.13;;
34876;SDS011;21086;44.780;17.194;2023-07-02T12:50:36;3.38;;;2.70;;
34876;SDS011;21086;44.780;17.194;2023-07-02T12:53:04;3.22;;;2.85;;
34876;SDS011;21086;44.780;17.194;2023-07-02T12:55:31;4.93;;;2.92;;
34876;SDS011;21086;44.780;17.194;2023-07-02T12:57:58;4.45;;;2.70;;
34876;SDS011;21086;44.780;17.194;2023-07-02T13:00:26;4.97;;;2.75;;
34876;SDS011;21086;44.780;17.194;2023-07-02T13:02:53;4.95;;;2.70;;
34876;SDS011;21086;44.780;17.194;2023-07-02T13:05:30;2.95;;;2.60;;
34876;SDS011;21086;44.780;17.194;2023-07-02T13:07:58;3.63;;;2.42;;
34876;SDS011;21086;44.780;17.194;2023-07-02T13:10:25;3.30;;;2.60;;
34876;SDS011;21086;44.780;17.194;2023-07-02T13:12:52;4.65;;;2.90;;
34876;SDS011;21086;44.780;17.194;2023-07-02T13:15:19;3.00;;;2.40;;
34876;SDS011;21086;44.780;17.194;2023-07-02T13:17:46;3.45;;;2.63;;
34876;SDS011;21086;44.780;17.194;2023-07-02T13:20:13;4.80;;;2.78;;
34876;SDS011;21086;44.780;17.194;2023-07-02T13:22:41;2.83;;;2.30;;
34876;SDS011;21086;44.780;17.194;2023-07-02T13:25:08;4.30;;;2.80;;
34876;SDS011;21086;44.780;17.194;2023-07-02T13:27:35;3.35;;;2.80;;
34876;SDS011;21086;44.780;17.194;2023-07-02T13:30:02;2.75;;;2.28;;
34876;SDS011;21086;44.780;17.194;2023-07-02T13:32:30;3.22;;;2.75;;
34876;SDS011;21086;44.780;17.194;2023-07-02T13:34:59;3.80;;;2.50;;
34876;SDS011;21086;44.780;17.194;2023-07-02T13:37:26;2.80;;;2.35;;
34876;SDS011;21086;44.780;17.194;2023-07-02T13:39:53;4.15;;;2.70;;
34876;SDS011;21086;44.780;17.194;2023-07-02T13:42:21;3.40;;;2.30;;
34876;SDS011;21086;44.780;17.194;2023-07-02T13:44:48;2.92;;;2.00;;
34876;SDS011;21086;44.780;17.194;2023-07-02T13:47:15;2.92;;;2.47;;
34876;SDS011;21086;44.780;17.194;2023-07-02T13:49:41;2.97;;;2.40;;
34876;SDS011;21086;44.780;17.194;2023-07-02T13:52:10;3.13;;;2.10;;
34876;SDS011;21086;44.780;17.194;2023-07-02T13:54:37;2.78;;;2.20;;
34876;SDS011;21086;44.780;17.194;2023-07-02T13:57:04;2.58;;;2.00;;
34876;SDS011;21086;44.780;17.194;2023-07-02T13:59:31;2.70;;;2.28;;
34876;SDS011;21086;44.780;17.194;2023-07-02T14:01:58;3.03;;;2.47;;
34876;SDS011;21086;44.780;17.194;2023-07-02T14:04:25;2.00;;;1.80;;
34876;SDS011;21086;44.780;17.194;2023-07-02T14:06:53;2.75;;;2.33;;
34876;SDS011;21086;44.780;17.194;2023-07-02T14:09:20;2.65;;;2.30;;
34876;SDS011;21086;44.780;17.194;2023-07-02T14:11:47;4.80;;;2.25;;
34876;SDS011;21086;44.780;17.194;2023-07-02T14:14:14;3.00;;;2.40;;
34876;SDS011;21086;44.780;17.194;2023-07-02T14:16:42;2.65;;;2.25;;
34876;SDS011;21086;44.780;17.194;2023-07-02T14:19:09;4.07;;;2.10;;
34876;SDS011;21086;44.780;17.194;2023-07-02T14:21:36;2.75;;;2.20;;
34876;SDS011;21086;44.780;17.194;2023-07-02T14:24:03;2.53;;;2.08;;
34876;SDS011;21086;44.780;17.194;2023-07-02T14:26:31;2.42;;;2.00;;
34876;SDS011;21086;44.780;17.194;2023-07-02T14:28:58;2.67;;;1.95;;
34876;SDS011;21086;44.780;17.194;2023-07-02T14:31:25;2.55;;;1.90;;
34876;SDS011;21086;44.780;17.194;2023-07-02T14:33:52;2.15;;;1.75;;
34876;SDS011;21086;44.780;17.194;2023-07-02T14:36:19;2.83;;;1.80;;
34876;SDS011;21086;44.780;17.194;2023-07-02T14:38:46;2.10;;;1.80;;
34876;SDS011;21086;44.780;17.194;2023-07-02T14:41:14;2.80;;;1.92;;
34876;SDS011;21086;44.780;17.194;2023-07-02T14:43:41;2.60;;;1.90;;